Time;durP1;ratioP1;P1;durP2;ratioP2;P2;SDS_P1;SDS_P2;PMS_P1;PMS_P2;Temp;Humidity;BMP_temperature;BMP_pressure;BME280_temperature;BME280_humidity;BME280_pressure;Samples;Min_cycle;Max_cycle;Signal;HPM_P1;HPM_P2
2022/03/23 00:01:09;;;;;;;20.77;15.27;;;10.00;58.10;;;;;;5137633;27;20131;-90
2022/03/23 00:03:37;;;;;;;21.30;15.80;;;10.50;58.40;;;;;;5110982;27;20047;-90
2022/03/23 00:06:03;;;;;;;19.67;15.73;;;9.90;58.20;;;;;;5118397;27;20046;-90
2022/03/23 00:08:29;;;;;;;21.10;16.15;;;9.90;58.20;;;;;;5103243;27;20051;-90
2022/03/23 00:10:55;;;;;;;24.20;17.77;;;10.40;58.50;;;;;;5100929;27;20069;-90
2022/03/23 00:13:20;;;;;;;18.85;14.95;;;10.40;58.50;;;;;;5126378;27;20409;-90
2022/03/23 00:15:47;;;;;;;20.15;15.82;;;10.30;58.50;;;;;;5145969;27;20445;-90
2022/03/23 00:18:13;;;;;;;21.70;16.52;;;9.80;58.40;;;;;;5106100;27;20039;-90
2022/03/23 00:20:39;;;;;;;22.70;17.55;;;9.80;58.40;;;;;;5118080;27;20043;-91
2022/03/23 00:23:05;;;;;;;20.00;15.85;;;9.80;58.50;;;;;;5124548;27;20034;-91
2022/03/23 00:25:31;;;;;;;21.10;16.50;;;9.80;58.50;;;;;;5138911;27;20047;-91
2022/03/23 00:27:57;;;;;;;21.48;16.25;;;9.80;58.60;;;;;;5147501;27;20045;-90
2022/03/23 00:30:23;;;;;;;18.50;15.00;;;9.70;58.50;;;;;;5107287;27;20067;-90
2022/03/23 00:32:50;;;;;;;20.88;16.10;;;9.60;58.60;;;;;;5136765;27;20504;-90
2022/03/23 00:35:16;;;;;;;18.60;15.00;;;10.10;58.80;;;;;;5118746;27;20043;-90
2022/03/23 00:38:00;;;;;;;20.15;15.85;;;9.90;58.70;;;;;;5100609;27;20058;-90
2022/03/23 00:40:30;;;;;;;21.33;15.73;;;10.30;59.10;;;;;;5142403;27;20039;-91
2022/03/23 00:42:59;;;;;;;20.48;16.13;;;9.60;58.70;;;;;;5121162;27;20042;-90
2022/03/23 00:45:25;;;;;;;20.92;15.40;;;9.90;58.90;;;;;;5138197;27;20043;-90
2022/03/23 00:47:51;;;;;;;21.95;16.50;;;9.60;59.10;;;;;;5137938;27;20046;-91
2022/03/23 00:50:17;;;;;;;21.77;17.38;;;9.90;59.00;;;;;;5142214;27;20447;-91
2022/03/23 00:53:23;;;;;;;23.35;18.40;;;9.70;58.90;;;;;;5135961;27;20103;-91
2022/03/23 00:55:49;;;;;;;21.50;16.02;;;9.50;58.90;;;;;;5116576;27;20053;-91
2022/03/23 00:58:15;;;;;;;21.80;16.10;;;10.00;59.10;;;;;;5118689;27;20423;-91
2022/03/23 01:00:41;;;;;;;20.33;15.98;;;9.60;58.90;;;;;;5102648;27;20154;-91
2022/03/23 01:03:07;;;;;;;20.25;16.05;;;9.50;58.90;;;;;;5135915;27;20075;-90
2022/03/23 01:05:33;;;;;;;23.13;17.27;;;9.90;59.20;;;;;;5107248;27;20046;-91
2022/03/23 01:08:18;;;;;;;22.48;18.40;;;9.40;59.00;;;;;;5126891;28;20043;-91
2022/03/23 01:10:44;;;;;;;;;;;9.40;59.10;;;;;;5123582;27;20043;-90
2022/03/23 01:13:10;;;;;;;21.35;16.13;;;9.30;58.90;;;;;;5135601;27;19926;-91
2022/03/23 01:15:36;;;;;;;22.10;16.00;;;9.30;58.90;;;;;;5152505;27;20071;-91
2022/03/23 01:18:02;;;;;;;21.00;16.38;;;9.70;59.20;;;;;;5145789;27;20034;-91
2022/03/23 01:20:30;;;;;;;20.33;15.88;;;9.30;59.10;;;;;;5143912;27;20478;-91
2022/03/23 01:22:56;;;;;;;22.42;16.58;;;9.70;59.30;;;;;;5119536;27;20386;-91
2022/03/23 01:25:22;;;;;;;22.27;16.67;;;9.10;59.00;;;;;;5124242;27;20047;-91
2022/03/23 01:27:48;;;;;;;22.95;17.55;;;9.20;59.10;;;;;;5145664;27;20062;-91
2022/03/23 01:30:15;;;;;;;24.58;17.75;;;9.70;59.50;;;;;;5158336;27;20039;-91
2022/03/23 01:32:42;;;;;;;21.98;15.57;;;9.70;59.50;;;;;;5123843;27;20035;-91
2022/03/23 01:35:09;;;;;;;21.05;16.27;;;9.40;59.20;;;;;;5131897;27;20043;-90
2022/03/23 01:37:36;;;;;;;23.77;17.90;;;9.50;59.30;;;;;;5169072;27;20069;-90
2022/03/23 01:40:04;;;;;;;22.80;17.17;;;9.10;59.10;;;;;;5116533;27;20043;-90
2022/03/23 01:42:30;;;;;;;23.73;17.48;;;9.10;59.20;;;;;;5130803;27;20083;-91
2022/03/23 01:44:56;;;;;;;24.02;17.52;;;9.10;59.10;;;;;;5127914;27;20043;-90
2022/03/23 01:47:22;;;;;;;22.95;16.38;;;9.10;59.20;;;;;;5104898;27;20051;-91
2022/03/23 01:49:56;;;;;;;23.48;17.90;;;9.30;59.40;;;;;;5122985;27;20047;-91
2022/03/23 01:52:24;;;;;;;22.50;17.88;;;8.90;59.30;;;;;;5144916;27;20672;-90
2022/03/23 01:54:51;;;;;;;24.25;17.02;;;8.80;59.20;;;;;;5104499;27;20151;-91
2022/03/23 01:57:19;;;;;;;21.88;17.02;;;8.90;59.30;;;;;;5122330;27;20055;-89
2022/03/23 01:59:45;;;;;;;21.92;16.67;;;8.90;59.40;;;;;;5104399;27;20050;-89
2022/03/23 02:02:11;;;;;;;21.55;16.58;;;8.90;59.40;;;;;;5138296;27;20092;-89
2022/03/23 02:04:38;;;;;;;20.50;15.98;;;8.80;59.40;;;;;;5133344;27;20039;-89
2022/03/23 02:07:04;;;;;;;22.13;16.00;;;9.10;59.60;;;;;;5139829;27;20042;-88
2022/03/23 02:09:34;;;;;;;22.83;17.50;;;8.60;59.40;;;;;;5107629;27;20509;-89
2022/03/23 02:12:08;;;;;;;27.27;18.85;;;9.10;59.70;;;;;;5155272;27;20042;-89
2022/03/23 02:14:35;;;;;;;23.55;17.85;;;8.70;59.50;;;;;;5142398;27;20053;-88
2022/03/23 02:17:01;;;;;;;21.98;17.38;;;9.10;59.80;;;;;;5135362;27;20039;-89
2022/03/23 02:19:28;;;;;;;24.60;18.75;;;9.00;59.80;;;;;;5121568;27;20118;-89
2022/03/23 02:21:54;;;;;;;21.55;16.48;;;8.70;59.70;;;;;;5139999;27;20039;-90
2022/03/23 02:28:01;;;;;;;24.77;17.15;;;8.70;59.80;;;;;;5139106;27;20038;-90
2022/03/23 02:30:27;;;;;;;21.92;16.80;;;8.60;59.70;;;;;;5137089;27;20058;-90
2022/03/23 02:32:53;;;;;;;22.88;17.70;;;9.10;60.00;;;;;;5120257;27;20045;-89
2022/03/23 02:35:19;;;;;;;24.30;17.50;;;8.60;59.90;;;;;;5140129;27;20041;-89
2022/03/23 02:37:45;;;;;;;23.83;18.10;;;8.70;59.90;;;;;;5121096;27;20542;-89
2022/03/23 02:40:11;;;;;;;23.30;17.10;;;8.60;59.90;;;;;;5120811;27;20039;-90
2022/03/23 02:42:37;;;;;;;23.77;17.35;;;8.60;60.00;;;;;;5112135;27;20042;-90
2022/03/23 02:45:07;;;;;;;23.75;17.77;;;8.50;59.90;;;;;;5121663;27;20040;-89
2022/03/23 02:47:33;;;;;;;24.15;18.30;;;8.60;60.10;;;;;;5142251;27;20035;-89
2022/03/23 02:49:59;;;;;;;25.75;19.33;;;8.70;60.10;;;;;;5124162;27;20046;-89
2022/03/23 02:52:25;;;;;;;25.35;19.05;;;8.90;60.20;;;;;;5137364;27;20142;-89
2022/03/23 03:03:59;;;;;;;23.08;17.80;;;8.40;60.10;;;;;;5041674;28;20110;-90
2022/03/23 03:06:24;;;;;;;24.77;19.63;;;8.60;60.20;;;;;;5072059;28;20064;-90
2022/03/23 03:08:51;;;;;;;29.73;20.48;;;8.40;60.20;;;;;;5078265;28;20544;-89
2022/03/23 03:11:21;;;;;;;24.65;18.55;;;8.40;60.30;;;;;;5070818;28;20100;-88
2022/03/23 03:13:49;;;;;;;28.17;19.15;;;8.40;60.20;;;;;;5090316;28;20037;-89
2022/03/23 03:16:15;;;;;;;25.65;19.08;;;8.80;60.50;;;;;;5060459;28;20049;-89
2022/03/23 03:18:41;;;;;;;26.88;19.45;;;8.30;60.20;;;;;;5078368;28;20044;-89
2022/03/23 03:21:09;;;;;;;27.55;19.08;;;8.50;60.30;;;;;;5073043;28;20048;-89
2022/03/23 03:23:37;;;;;;;25.13;19.48;;;8.70;60.50;;;;;;5071531;28;20078;-89
2022/03/23 03:26:05;;;;;;;22.70;17.75;;;8.20;60.30;;;;;;5081963;28;20059;-88
2022/03/23 03:28:35;;;;;;;24.38;19.23;;;8.20;60.30;;;;;;5080762;28;20447;-90
2022/03/23 03:31:07;;;;;;;26.70;18.70;;;8.50;60.60;;;;;;5053169;28;20037;-88
2022/03/23 03:33:33;;;;;;;24.95;18.88;;;8.20;60.40;;;;;;5063889;27;20041;-89
2022/03/23 03:35:59;;;;;;;26.80;19.27;;;8.60;60.70;;;;;;5154444;27;20046;-88
2022/03/23 03:38:29;;;;;;;25.95;18.98;;;8.10;60.40;;;;;;5108083;28;20058;-89
2022/03/23 03:40:55;;;;;;;25.55;18.98;;;8.20;60.40;;;;;;5119655;27;20043;-88
2022/03/23 03:43:21;;;;;;;25.73;18.95;;;8.50;60.70;;;;;;5137831;27;20048;-88
2022/03/23 03:45:47;;;;;;;24.88;19.67;;;8.20;60.50;;;;;;5126941;27;20043;-89
2022/03/23 03:48:13;;;;;;;24.60;19.95;;;8.10;60.50;;;;;;5118626;27;20134;-89
2022/03/23 03:50:39;;;;;;;27.45;20.17;;;8.50;60.80;;;;;;5099183;28;20086;-89
2022/03/23 03:53:07;;;;;;;28.38;20.05;;;8.10;60.60;;;;;;5099038;28;20038;-89
2022/03/23 03:55:34;;;;;;;27.08;20.25;;;8.30;60.70;;;;;;5124015;27;20039;-90
2022/03/23 03:58:00;;;;;;;28.70;20.63;;;8.00;60.60;;;;;;5114177;28;20069;-90
2022/03/23 04:00:26;;;;;;;26.30;19.33;;;8.30;60.70;;;;;;5082159;28;20047;-89
2022/03/23 04:02:51;;;;;;;29.27;20.40;;;8.00;60.50;;;;;;5145431;27;20058;-90
2022/03/23 04:05:17;;;;;;;28.85;20.95;;;8.40;60.80;;;;;;5143098;27;20097;-89
2022/03/23 04:07:43;;;;;;;27.05;19.77;;;8.30;60.70;;;;;;5105164;27;20516;-89
2022/03/23 04:13:50;;;;;;;27.00;19.73;;;7.90;60.60;;;;;;5147808;27;20038;-89
2022/03/23 04:16:16;;;;;;;26.88;19.60;;;7.90;60.60;;;;;;5136890;27;20054;-90
2022/03/23 04:18:41;;;;;;;27.35;20.70;;;7.90;60.70;;;;;;5136503;27;20047;-90
2022/03/23 04:21:07;;;;;;;27.83;20.08;;;8.10;60.90;;;;;;5101418;27;20043;-90
2022/03/23 04:23:34;;;;;;;28.45;20.67;;;7.80;60.80;;;;;;5122819;27;20067;-90
2022/03/23 04:26:00;;;;;;;27.58;20.98;;;7.80;60.80;;;;;;5151933;27;20485;-90
2022/03/23 04:28:26;;;;;;;28.42;20.20;;;7.80;60.80;;;;;;5149786;27;20067;-90
2022/03/23 04:30:51;;;;;;;28.25;20.73;;;8.20;61.10;;;;;;5138686;27;20494;-90
2022/03/23 04:33:17;;;;;;;25.77;19.27;;;8.10;61.10;;;;;;5151748;27;20031;-90
2022/03/23 04:35:43;;;;;;;28.15;20.17;;;8.00;61.10;;;;;;5129863;27;20430;-91
2022/03/23 04:38:09;;;;;;;27.77;20.92;;;7.80;61.00;;;;;;5122687;27;20435;-90
2022/03/23 04:40:35;;;;;;;29.15;21.48;;;7.70;60.90;;;;;;5125594;27;20133;-90
2022/03/23 04:43:00;;;;;;;30.88;20.95;;;7.90;61.10;;;;;;5118355;27;20078;-91
2022/03/23 04:45:26;;;;;;;30.40;21.75;;;8.00;61.10;;;;;;5136211;27;20085;-91
2022/03/23 04:47:52;;;;;;;29.08;21.60;;;7.40;60.80;;;;;;5154728;27;20042;-90
2022/03/23 04:50:18;;;;;;;32.08;22.63;;;7.70;61.00;;;;;;5177939;27;20438;-91
2022/03/23 04:52:46;;;;;;;29.10;20.13;;;7.70;61.00;;;;;;5156836;27;20087;-91
2022/03/23 04:58:54;;;;;;;25.75;20.00;;;7.60;60.90;;;;;;5175464;27;20033;-90
2022/03/23 05:01:20;;;;;;;27.90;20.42;;;7.40;60.80;;;;;;5157300;27;20039;-91
2022/03/23 05:03:46;;;;;;;26.80;20.20;;;8.10;61.20;;;;;;5157678;27;20118;-90
2022/03/23 05:06:12;;;;;;;30.77;21.83;;;7.60;60.90;;;;;;5150589;27;20037;-83
2022/03/23 05:08:38;;;;;;;27.75;20.80;;;7.60;60.90;;;;;;5156530;27;20018;-88
2022/03/23 05:11:04;;;;;;;28.60;21.35;;;7.70;61.00;;;;;;5127765;27;20043;-91
2022/03/23 05:13:30;;;;;;;28.08;20.17;;;8.00;61.20;;;;;;5135315;27;20386;-91
2022/03/23 05:15:55;;;;;;;28.92;20.77;;;7.50;60.90;;;;;;5120900;27;20111;-91
2022/03/23 05:18:21;;;;;;;26.50;20.20;;;7.90;61.20;;;;;;5126079;27;20039;-90
2022/03/23 05:20:48;;;;;;;29.58;20.55;;;7.50;60.90;;;;;;5143002;27;20481;-91
2022/03/23 05:23:14;;;;;;;29.08;20.60;;;7.80;61.00;;;;;;5128413;27;20046;-91
2022/03/23 05:29:39;;;;;;;28.02;19.70;;;7.40;61.00;;;;;;5158214;27;20049;-91
2022/03/23 05:32:06;;;;;;;26.05;19.30;;;7.90;61.30;;;;;;5137982;27;20042;-91
2022/03/23 05:34:32;;;;;;;27.60;19.45;;;7.40;60.90;;;;;;5121603;27;20049;-91
2022/03/23 05:36:57;;;;;;;29.63;20.30;;;7.40;61.10;;;;;;5140558;27;20043;-91
2022/03/23 05:39:23;;;;;;;27.63;20.20;;;7.70;61.30;;;;;;5128158;27;20064;-91
2022/03/23 05:41:49;;;;;;;26.67;19.48;;;7.30;61.10;;;;;;5159334;27;20137;-92
2022/03/23 05:44:14;;;;;;;31.17;21.65;;;7.70;61.30;;;;;;5131446;27;20035;-91
2022/03/23 05:46:40;;;;;;;28.17;20.60;;;7.60;61.30;;;;;;5121281;27;20047;-92
2022/03/23 05:49:06;;;;;;;32.38;22.13;;;7.70;61.40;;;;;;5156671;27;20076;-92
2022/03/23 05:51:32;;;;;;;29.38;19.50;;;7.70;61.40;;;;;;5120587;28;20039;-89
2022/03/23 05:53:57;;;;;;;28.05;20.73;;;7.70;61.50;;;;;;5104394;28;20047;-90
2022/03/23 05:56:23;;;;;;;31.98;23.15;;;7.70;61.50;;;;;;5126537;27;20107;-91
2022/03/23 05:58:49;;;;;;;35.03;23.38;;;7.20;61.20;;;;;;5147052;27;20051;-91
2022/03/23 06:01:15;;;;;;;31.85;21.30;;;7.20;61.30;;;;;;5137737;27;20400;-92
2022/03/23 06:03:41;;;;;;;31.80;21.55;;;7.40;61.50;;;;;;5140214;27;20047;-93
2022/03/23 06:06:06;;;;;;;31.45;21.85;;;7.20;61.40;;;;;;5137419;27;20481;-90
2022/03/23 06:08:32;;;;;;;28.48;21.48;;;7.40;61.50;;;;;;5138643;27;20090;-92
2022/03/23 06:11:54;;;;;;;32.00;22.95;;;7.60;61.70;;;;;;5124134;27;20038;-92
2022/03/23 06:14:20;;;;;;;33.75;22.70;;;7.20;61.70;;;;;;5157726;27;20060;-92
2022/03/23 06:16:46;;;;;;;32.10;22.08;;;7.20;61.70;;;;;;5147403;27;20047;-92
2022/03/23 06:19:13;;;;;;;33.28;23.63;;;7.20;61.80;;;;;;5120704;27;20049;-92
2022/03/23 06:21:39;;;;;;;32.47;22.52;;;7.70;62.30;;;;;;5103780;27;20046;-92
2022/03/23 06:24:05;;;;;;;33.30;23.48;;;7.70;62.40;;;;;;5112993;27;20133;-93
2022/03/23 06:26:31;;;;;;;37.63;25.30;;;7.30;62.20;;;;;;5136158;27;20043;-92
2022/03/23 06:28:57;;;;;;;35.00;24.45;;;7.40;62.40;;;;;;5103343;27;20062;-93
2022/03/23 06:31:23;;;;;;;37.65;26.23;;;7.80;62.80;;;;;;5120387;27;20085;-92
2022/03/23 06:33:49;;;;;;;40.55;27.33;;;7.70;62.80;;;;;;5105477;27;20047;-92
2022/03/23 06:36:14;;;;;;;37.85;25.90;;;7.80;63.10;;;;;;5119809;27;20042;-91
2022/03/23 06:38:40;;;;;;;36.03;27.02;;;7.60;63.10;;;;;;5144292;27;20055;-93
2022/03/23 06:41:07;;;;;;;37.42;27.00;;;8.00;63.40;;;;;;5120706;27;20050;-92
2022/03/23 06:43:33;;;;;;;38.10;27.20;;;7.80;63.30;;;;;;5120367;27;20130;-91
2022/03/23 06:46:00;;;;;;;41.40;28.50;;;8.00;63.50;;;;;;5120002;27;20096;-92
2022/03/23 06:48:25;;;;;;;42.17;28.35;;;7.90;63.50;;;;;;5152247;27;20463;-91
2022/03/23 06:50:51;;;;;;;40.53;29.38;;;8.10;63.60;;;;;;5127893;27;20068;-91
2022/03/23 06:53:17;;;;;;;37.53;27.90;;;8.10;63.70;;;;;;5120106;27;20039;-92
2022/03/23 06:56:20;;;;;;;46.13;33.58;;;8.20;63.70;;;;;;5109632;27;20043;-92
2022/03/23 06:58:46;;;;;;;50.25;35.17;;;8.30;63.80;;;;;;5127037;27;20078;-92
2022/03/23 07:01:12;;;;;;;49.20;33.67;;;8.10;63.50;;;;;;5124119;27;20042;-91
2022/03/23 07:03:37;;;;;;;47.63;34.10;;;8.80;63.90;;;;;;5141309;27;20374;-91
2022/03/23 07:06:03;;;;;;;44.22;31.92;;;8.10;63.30;;;;;;5140090;27;20393;-89
2022/03/23 07:11:13;;;;;;;47.58;31.95;;;8.60;63.90;;;;;;5158681;27;20050;-91
2022/03/23 07:13:39;;;;;;;51.20;33.45;;;8.60;63.90;;;;;;5108614;27;20039;-90
2022/03/23 07:16:04;;;;;;;47.00;34.55;;;8.70;64.30;;;;;;5124379;27;20037;-90
2022/03/23 07:18:30;;;;;;;49.35;34.50;;;8.70;64.40;;;;;;5149016;27;20043;-87
2022/03/23 07:20:56;;;;;;;46.97;33.33;;;8.70;64.60;;;;;;5137311;27;20041;-87
2022/03/23 07:23:22;;;;;;;48.97;33.45;;;9.20;65.00;;;;;;5143710;27;20082;-89
2022/03/23 07:26:09;;;;;;;47.85;34.03;;;8.90;64.80;;;;;;5123240;27;20493;-88
2022/03/23 07:28:38;;;;;;;53.15;35.55;;;9.40;65.00;;;;;;5119239;27;20054;-88
2022/03/23 07:31:04;;;;;;;49.80;34.03;;;9.30;64.70;;;;;;5137818;27;20039;-88
2022/03/23 07:33:30;;;;;;;54.85;35.85;;;9.50;64.80;;;;;;5119195;27;20043;-88
2022/03/23 07:35:55;;;;;;;47.17;34.28;;;9.20;64.60;;;;;;5102921;27;20066;-89
2022/03/23 07:38:21;;;;;;;46.05;33.15;;;9.50;64.80;;;;;;5102081;27;20501;-89
2022/03/23 07:40:49;;;;;;;43.92;31.70;;;9.30;64.70;;;;;;5120056;27;20053;-88
2022/03/23 07:43:15;;;;;;;46.90;33.05;;;9.60;64.70;;;;;;5159865;27;20128;-88
2022/03/23 07:45:41;;;;;;;44.15;31.92;;;9.60;64.40;;;;;;5142585;27;20121;-88
2022/03/23 07:48:07;;;;;;;45.72;31.77;;;9.90;64.40;;;;;;5160126;27;20042;-88
2022/03/23 07:50:33;;;;;;;45.92;32.33;;;10.20;64.30;;;;;;5142346;27;20146;-88
2022/03/23 07:52:58;;;;;;;45.70;32.80;;;10.00;63.90;;;;;;5118442;27;20133;-89
2022/03/23 07:55:26;;;;;;;49.20;33.00;;;10.10;63.80;;;;;;5118474;27;20047;-88
2022/03/23 07:57:55;;;;;;;42.67;32.08;;;10.50;63.70;;;;;;5115304;27;20050;-88
2022/03/23 08:00:23;;;;;;;43.30;32.10;;;10.90;63.50;;;;;;5112974;27;20082;-88
2022/03/23 08:02:50;;;;;;;41.67;32.05;;;10.70;62.90;;;;;;5129196;27;20122;-88
2022/03/23 08:05:19;;;;;;;41.03;31.20;;;11.00;62.50;;;;;;5131541;27;20108;-88
2022/03/23 08:07:45;;;;;;;43.75;32.35;;;11.20;62.30;;;;;;5103496;27;20043;-88
2022/03/23 08:10:11;;;;;;;40.20;28.77;;;11.60;62.10;;;;;;5155969;27;20089;-89
2022/03/23 08:12:42;;;;;;;40.42;29.98;;;11.90;60.40;;;;;;5158498;27;20042;-89
2022/03/23 08:15:16;;;;;;;41.25;30.15;;;12.50;59.50;;;;;;5140874;27;20081;-88
2022/03/23 08:17:45;;;;;;;37.88;30.15;;;12.50;58.90;;;;;;5138407;27;20450;-88
2022/03/23 08:23:30;;;;;;;37.88;30.00;;;13.10;56.70;;;;;;5126708;22;20065;-87
2022/03/23 08:25:56;;;;;;;36.88;28.27;;;13.40;56.70;;;;;;5117580;27;20111;-89
2022/03/23 08:28:30;;;;;;;36.78;28.98;;;13.80;56.20;;;;;;5092801;28;20123;-89
2022/03/23 08:30:58;;;;;;;36.10;27.70;;;14.10;55.00;;;;;;5062404;28;20044;-89
2022/03/23 08:33:25;;;;;;;34.75;28.10;;;14.40;54.30;;;;;;5061532;28;20040;-89
2022/03/23 08:35:54;;;;;;;36.42;27.75;;;14.70;53.50;;;;;;5084848;28;20069;-89
2022/03/23 08:38:23;;;;;;;34.58;26.85;;;14.90;52.90;;;;;;5115617;28;20040;-88
2022/03/23 08:40:51;;;;;;;36.83;26.58;;;15.10;52.50;;;;;;5076432;28;20556;-88
2022/03/23 08:43:20;;;;;;;32.85;27.30;;;15.30;51.30;;;;;;5095598;28;20435;-89
2022/03/23 08:45:49;;;;;;;35.20;27.40;;;15.70;50.30;;;;;;5097003;28;20482;-89
2022/03/23 08:48:22;;;;;;;33.00;27.05;;;16.00;50.20;;;;;;5115121;28;20048;-88
2022/03/23 08:50:52;;;;;;;34.05;27.08;;;16.00;49.10;;;;;;5105357;28;20052;-89
2022/03/23 08:53:19;;;;;;;33.35;26.05;;;16.30;47.90;;;;;;5101945;28;20587;-89
2022/03/23 08:55:45;;;;;;;37.22;27.10;;;16.50;47.20;;;;;;5090645;28;20043;-89
2022/03/23 08:58:13;;;;;;;33.75;25.70;;;16.60;46.90;;;;;;5097328;28;20081;-90
2022/03/23 09:00:41;;;;;;;30.10;25.55;;;16.80;45.40;;;;;;5078640;28;20036;-89
2022/03/23 09:03:16;;;;;;;30.77;27.48;;;16.80;44.20;;;;;;5095683;28;20067;-90
2022/03/23 09:06:00;;;;;;;35.40;27.15;;;16.90;44.50;;;;;;5096418;28;20400;-89
2022/03/23 09:08:29;;;;;;;28.20;25.15;;;17.00;43.80;;;;;;5113197;28;20051;-89
2022/03/23 09:10:57;;;;;;;33.15;26.60;;;17.10;42.20;;;;;;5095749;28;20047;-89
2022/03/23 09:13:28;;;;;;;32.67;27.45;;;17.10;43.20;;;;;;5101197;28;20043;-90
2022/03/23 09:15:54;;;;;;;31.70;26.27;;;17.20;43.30;;;;;;5111342;28;20137;-89
2022/03/23 09:18:20;;;;;;;29.55;25.90;;;17.20;43.20;;;;;;5100425;28;20046;-89
2022/03/23 09:20:46;;;;;;;31.50;26.85;;;17.30;43.10;;;;;;5116249;28;20398;-89
2022/03/23 09:23:14;;;;;;;33.08;27.70;;;17.30;43.00;;;;;;5113132;28;20043;-89
2022/03/23 09:25:40;;;;;;;30.73;26.63;;;17.40;43.10;;;;;;5094092;28;20083;-89
2022/03/23 09:28:06;;;;;;;31.85;25.40;;;17.50;42.80;;;;;;5129827;28;20078;-89
2022/03/23 09:30:34;;;;;;;29.90;25.33;;;17.50;42.90;;;;;;5117033;28;20130;-89
2022/03/23 09:33:01;;;;;;;33.83;26.10;;;17.70;42.60;;;;;;5092550;28;20040;-89
2022/03/23 09:35:30;;;;;;;28.35;24.88;;;17.80;41.50;;;;;;5086656;28;20044;-88
2022/03/23 09:37:57;;;;;;;29.77;24.58;;;18.00;41.00;;;;;;5115782;28;20043;-89
2022/03/23 09:40:28;;;;;;;30.05;25.13;;;18.10;41.00;;;;;;5103067;28;20044;-89
2022/03/23 09:42:59;;;;;;;30.65;25.13;;;18.10;39.70;;;;;;5095756;28;20146;-89
2022/03/23 09:45:37;;;;;;;27.30;23.27;;;18.20;39.40;;;;;;5081607;28;20378;-89
2022/03/23 09:48:09;;;;;;;25.40;21.92;;;17.90;38.70;;;;;;5103643;27;20129;-88
2022/03/23 09:50:37;;;;;;;26.23;22.20;;;18.40;38.10;;;;;;5120611;27;20486;-89
2022/03/23 09:53:03;;;;;;;28.02;22.02;;;18.50;37.90;;;;;;5135905;27;20043;-89
2022/03/23 09:55:30;;;;;;;26.70;23.08;;;18.50;37.40;;;;;;5099212;28;20048;-88
2022/03/23 09:57:58;;;;;;;23.98;21.27;;;18.60;37.50;;;;;;5116860;28;20036;-89
2022/03/23 10:00:27;;;;;;;24.10;21.55;;;18.70;36.60;;;;;;5070122;28;20059;-89
2022/03/23 10:03:12;;;;;;;23.83;20.90;;;18.70;36.30;;;;;;5093540;28;20408;-89
2022/03/23 10:06:34;;;;;;;24.92;21.90;;;18.80;35.40;;;;;;5113973;28;20059;-88
2022/03/23 10:09:19;;;;;;;20.13;17.45;;;18.80;35.90;;;;;;5015091;28;20047;-88
2022/03/23 10:12:03;;;;;;;;;;;18.90;33.80;;;;;;5019027;28;20132;-88
2022/03/23 10:14:47;;;;;;;22.10;17.63;;;18.90;34.10;;;;;;5034912;28;20480;-87
2022/03/23 10:18:00;;;;;;;18.67;16.60;;;18.90;33.90;;;;;;5016789;28;20129;-88
2022/03/23 10:20:25;;;;;;;21.13;18.52;;;18.90;31.40;;;;;;4998873;28;20080;-88
2022/03/23 10:22:54;;;;;;;21.25;17.25;;;18.90;31.60;;;;;;5008250;28;20054;-88
2022/03/23 10:25:26;;;;;;;20.70;16.17;;;18.90;31.20;;;;;;5000405;28;20050;-88
2022/03/23 10:27:54;;;;;;;16.88;15.13;;;18.90;31.90;;;;;;5000036;28;20052;-88
2022/03/23 10:30:35;;;;;;;20.77;16.58;;;18.90;31.00;;;;;;5017270;28;20132;-88
2022/03/23 10:33:16;;;;;;;19.48;15.75;;;18.90;31.50;;;;;;5017272;28;20041;-88
2022/03/23 10:35:49;;;;;;;19.95;14.70;;;18.90;30.20;;;;;;5022585;28;20442;-88
2022/03/23 10:38:24;;;;;;;17.52;14.02;;;19.00;30.30;;;;;;5033712;28;20494;-88
2022/03/23 10:40:52;;;;;;;20.75;14.45;;;18.90;30.50;;;;;;5017714;28;20556;-88
2022/03/23 10:43:34;;;;;;;20.30;13.98;;;19.00;30.20;;;;;;5068647;28;20141;-88
2022/03/23 10:46:09;;;;;;;18.70;13.77;;;19.00;29.90;;;;;;5083718;27;20113;-87
2022/03/23 10:49:03;;;;;;;20.33;14.25;;;19.00;29.90;;;;;;5097636;28;20051;-88
2022/03/23 10:51:39;;;;;;;17.55;11.63;;;19.00;29.80;;;;;;5076334;28;20109;-88
2022/03/23 10:54:26;;;;;;;19.30;12.32;;;19.00;29.80;;;;;;5060592;28;20082;-88
2022/03/23 10:56:55;;;;;;;19.25;13.40;;;19.00;29.40;;;;;;5100066;27;20138;-87
2022/03/23 10:59:29;;;;;;;21.30;12.02;;;18.90;29.70;;;;;;5116037;28;20114;-87
2022/03/23 11:02:10;;;;;;;17.08;13.05;;;19.00;29.80;;;;;;5097975;28;20479;-88
2022/03/23 11:04:56;;;;;;;26.52;11.43;;;19.00;30.00;;;;;;5116869;28;20092;-87
2022/03/23 11:07:38;;;;;;;22.80;12.88;;;19.10;29.90;;;;;;5101448;27;20038;-86
2022/03/23 11:16:06;;;;;;;18.88;12.82;;;19.20;29.90;;;;;;5080315;28;20052;-87
2022/03/23 11:18:37;;;;;;;19.33;11.73;;;19.20;30.10;;;;;;5102571;27;20040;-87
2022/03/23 11:21:08;;;;;;;18.55;12.93;;;19.20;29.60;;;;;;5105792;28;20072;-88
2022/03/23 11:23:44;;;;;;;19.08;11.38;;;19.20;29.90;;;;;;5061078;28;20055;-88
2022/03/23 11:26:17;;;;;;;19.40;11.85;;;19.20;29.70;;;;;;5073326;28;20053;-87
2022/03/23 11:28:48;;;;;;;23.48;11.55;;;19.20;30.00;;;;;;5087523;28;20051;-87
2022/03/23 11:31:18;;;;;;;19.13;9.88;;;19.10;30.30;;;;;;5093360;28;20525;-88
2022/03/23 11:33:55;;;;;;;19.50;11.02;;;19.30;29.60;;;;;;5095774;28;20074;-88
2022/03/23 11:36:41;;;;;;;22.58;11.60;;;19.30;30.00;;;;;;5086984;28;20381;-87
2022/03/23 11:39:18;;;;;;;21.02;12.38;;;19.20;29.20;;;;;;5074000;28;20032;-86
2022/03/23 11:41:59;;;;;;;21.85;13.18;;;19.30;29.90;;;;;;5112881;28;20372;-88
2022/03/23 11:44:30;;;;;;;22.38;13.23;;;19.30;30.00;;;;;;5097443;28;20048;-88
2022/03/23 11:47:14;;;;;;;20.08;13.50;;;19.30;29.80;;;;;;5107874;28;20094;-87
2022/03/23 11:50:28;;;;;;;24.13;12.30;;;19.30;30.00;;;;;;5074347;28;20085;-86
2022/03/23 11:53:00;;;;;;;16.20;12.07;;;19.40;30.30;;;;;;5039685;28;20527;-86
2022/03/23 11:55:48;;;;;;;19.20;12.05;;;19.40;29.90;;;;;;5040102;28;20044;-86
2022/03/23 11:58:24;;;;;;;18.58;13.00;;;19.50;30.00;;;;;;5072711;28;20064;-87
2022/03/23 12:00:55;;;;;;;19.98;9.63;;;19.50;29.70;;;;;;5053201;28;20048;-87
2022/03/23 12:03:51;;;;;;;21.65;10.45;;;19.50;29.80;;;;;;5056136;28;20156;-87
2022/03/23 12:06:42;;;;;;;20.98;11.38;;;19.50;29.80;;;;;;5055075;28;20072;-87
2022/03/23 12:10:20;;;;;;;25.60;7.60;;;19.50;29.40;;;;;;5074956;28;20055;-87
2022/03/23 12:13:05;;;;;;;21.83;8.95;;;19.20;29.60;;;;;;4991509;28;20062;-86
2022/03/23 12:16:03;;;;;;;24.92;8.85;;;19.50;29.80;;;;;;4995922;28;20065;-84
2022/03/23 12:19:10;;;;;;;21.75;10.60;;;19.50;29.60;;;;;;4998712;28;20125;-87
2022/03/23 12:22:07;;;;;;;24.38;10.30;;;19.40;29.70;;;;;;4994555;28;20057;-87
2022/03/23 12:25:08;;;;;;;18.30;9.95;;;19.40;29.80;;;;;;4963438;28;20046;-85
2022/03/23 12:28:04;;;;;;;16.88;8.13;;;19.40;29.50;;;;;;4923026;29;20044;-86
2022/03/23 12:30:47;;;;;;;18.70;9.40;;;19.50;29.50;;;;;;4932734;29;20139;-86
2022/03/23 12:33:25;;;;;;;17.00;8.65;;;19.30;30.10;;;;;;4948302;29;20138;-87
2022/03/23 12:36:04;;;;;;;19.17;7.32;;;19.30;29.70;;;;;;4959244;29;20055;-86
2022/03/23 12:38:35;;;;;;;18.95;7.78;;;19.30;29.70;;;;;;4959880;29;20130;-87
2022/03/23 12:41:23;;;;;;;15.68;7.50;;;19.30;29.60;;;;;;4958511;29;20061;-87
2022/03/23 12:43:56;;;;;;;15.90;6.88;;;19.40;29.80;;;;;;4953383;29;20090;-87
2022/03/23 12:46:49;;;;;;;15.13;6.88;;;19.20;29.40;;;;;;4936914;29;20039;-87
2022/03/23 12:58:17;;;;;;;13.25;7.28;;;19.10;29.60;;;;;;5026269;28;20053;-86
2022/03/23 13:01:01;;;;;;;16.13;8.68;;;19.20;29.50;;;;;;5018819;28;20128;-86
2022/03/23 13:03:32;;;;;;;21.83;8.75;;;19.20;29.10;;;;;;5042773;28;20086;-86
2022/03/23 13:13:30;;;;;;;15.88;6.90;;;19.20;29.80;;;;;;5486626;23;20014;-90
2022/03/23 13:16:32;;;;;;;;;;;19.30;29.80;;;;;;5595829;23;20047;31
2022/03/23 13:30:12;;;;;;;15.70;6.00;;;19.20;29.70;;;;;;5370402;23;20070;-88
2022/03/23 13:36:10;;;;;;;14.38;6.70;;;19.40;29.40;;;;;;5380498;23;20088;31
2022/03/23 13:39:04;;;;;;;;;;;19.40;29.70;;;;;;5214175;23;20104;-88
2022/03/23 13:45:31;;;;;;;14.05;5.80;;;19.50;29.40;;;;;;5084361;23;20166;-90
2022/03/23 13:54:48;;;;;;;16.10;6.13;;;19.50;29.10;;;;;;5964157;23;20511;-88
2022/03/23 13:58:30;;;;;;;16.40;6.60;;;19.40;29.10;;;;;;4837172;29;20049;-88
2022/03/23 14:01:35;;;;;;;;;;;;;;;;;;;;;
2022/03/23 14:17:03;;;;;;;;;;;;;;;;;;;;;
2022/03/23 14:34:23;;;;;;;;;;;;;;;;;;;;;
2022/03/23 14:45:21;;;;;;;12.93;6.85;;;19.50;29.20;;;;;;5355307;23;20029;-86
2022/03/23 14:53:15;;;;;;;;;;;;;;;;;;;;;
2022/03/23 14:59:05;;;;;;;18.20;7.35;;;19.30;29.70;;;;;;5350842;23;21408;-87
2022/03/23 15:02:08;;;;;;;17.38;7.18;;;19.30;29.50;;;;;;4944162;29;20107;-87